createdAt,value
2022-12-22T00:02:07.449Z,259.17
2022-12-22T00:04:48.693Z,250.07
2022-12-22T00:07:29.496Z,467.03
2022-12-22T00:10:10.299Z,535.67
2022-12-22T00:12:53.557Z,464.47
2022-12-22T00:15:36.450Z,669.93
2022-12-22T00:18:18.311Z,612.80
2022-12-22T00:20:59.195Z,758.83
2022-12-22T00:23:40.198Z,608.77
2022-12-22T00:26:21.718Z,788.30
2022-12-22T00:29:04.381Z,624.00
2022-12-22T00:31:46.384Z,471.73
2022-12-22T00:34:33.492Z,446.90
2022-12-22T00:37:14.550Z,523.40
2022-12-22T00:39:55.594Z,630.30
2022-12-22T00:42:36.478Z,260.53
2022-12-22T00:45:18.913Z,490.77
2022-12-22T00:48:01.361Z,610.70
2022-12-22T00:50:48.434Z,182.53
2022-12-22T00:53:29.329Z,136.60
2022-12-22T00:56:10.161Z,139.23
2022-12-22T00:58:51.545Z,168.37
2022-12-22T01:01:34.334Z,117.60
2022-12-22T01:04:15.454Z,158.93
2022-12-22T01:06:56.313Z,157.87
2022-12-22T01:09:37.685Z,107.43
2022-12-22T01:12:19.032Z,104.53
2022-12-22T01:14:59.857Z,128.20
2022-12-22T01:17:42.324Z,125.83
2022-12-22T01:20:25.197Z,171.43
2022-12-22T01:23:07.198Z,240.07
2022-12-22T01:25:48.137Z,260.77
2022-12-22T01:28:34.302Z,348.17
2022-12-22T01:31:15.165Z,273.73
2022-12-22T01:33:57.393Z,289.13
2022-12-22T01:36:38.327Z,365.40
2022-12-22T01:39:19.259Z,375.53
2022-12-22T01:42:00.536Z,156.63
2022-12-22T01:44:41.683Z,185.23
2022-12-22T01:47:56.095Z,213.87
2022-12-22T01:50:45.072Z,228.63
2022-12-22T01:53:31.269Z,295.97
2022-12-22T01:56:13.000Z,154.87
2022-12-22T01:59:00.039Z,248.30
2022-12-22T02:01:41.003Z,163.50
2022-12-22T02:04:22.154Z,599.53
2022-12-22T02:07:05.496Z,131.73
2022-12-22T02:09:58.380Z,542.47
2022-12-22T02:12:47.271Z,143.13
2022-12-22T02:15:41.737Z,262.37
2022-12-22T02:18:29.212Z,127.00
2022-12-22T02:21:14.671Z,184.87
2022-12-22T02:24:19.384Z,110.87
2022-12-22T02:27:05.345Z,116.53
2022-12-22T02:29:51.790Z,145.10
2022-12-22T02:32:33.447Z,119.30
2022-12-22T02:35:14.644Z,134.70
2022-12-22T02:38:05.850Z,139.87
2022-12-22T02:40:52.338Z,168.20
2022-12-22T02:43:48.765Z,152.63
2022-12-22T02:46:39.109Z,180.63
2022-12-22T02:49:24.803Z,127.77
2022-12-22T02:52:13.984Z,126.13
2022-12-22T02:54:55.422Z,162.63
2022-12-22T02:57:37.853Z,120.30
2022-12-22T03:00:20.471Z,121.07
2022-12-22T03:03:01.453Z,133.77
2022-12-22T03:05:42.559Z,105.70
2022-12-22T03:08:23.686Z,101.73
2022-12-22T03:11:04.957Z,126.40
2022-12-22T03:13:45.890Z,127.60
2022-12-22T03:16:28.460Z,111.03
2022-12-22T03:19:09.578Z,92.07
2022-12-22T03:21:51.165Z,114.88
2022-12-22T03:24:32.060Z,119.85
2022-12-22T03:26:55.724Z,94.43
2022-12-22T03:29:19.330Z,93.93
2022-12-22T03:31:44.763Z,104.93
2022-12-22T03:34:08.407Z,100.55
2022-12-22T03:36:32.136Z,97.07
2022-12-22T03:38:55.715Z,90.32
2022-12-22T03:41:33.221Z,93.38
2022-12-22T03:44:14.270Z,93.15
2022-12-22T03:46:38.029Z,114.22
2022-12-22T03:49:11.708Z,196.05
2022-12-22T03:51:36.293Z,88.05
2022-12-22T03:54:00.056Z,96.25
2022-12-22T03:56:23.748Z,97.63
2022-12-22T03:58:47.386Z,85.70
2022-12-22T04:01:11.107Z,102.38
2022-12-22T04:03:34.916Z,80.75
2022-12-22T04:06:00.241Z,89.53
2022-12-22T04:08:23.863Z,122.63
2022-12-22T04:11:05.195Z,91.53
2022-12-22T04:13:28.872Z,114.80
2022-12-22T04:15:52.469Z,76.87
2022-12-22T04:18:16.097Z,106.28
2022-12-22T04:20:39.740Z,83.03
2022-12-22T04:23:05.277Z,111.18
2022-12-22T04:25:29.726Z,101.78
2022-12-22T04:27:53.490Z,188.70
2022-12-22T04:30:17.556Z,135.23
2022-12-22T04:32:41.271Z,84.00
2022-12-22T04:35:05.627Z,260.95
2022-12-22T04:37:29.505Z,111.57
2022-12-22T04:39:54.476Z,167.35
2022-12-22T04:42:18.298Z,109.55
2022-12-22T04:44:41.892Z,96.40
2022-12-22T04:47:05.636Z,105.40
2022-12-22T04:49:29.288Z,92.47
2022-12-22T04:51:52.924Z,163.20
2022-12-22T04:54:16.715Z,120.47
2022-12-22T04:56:41.769Z,114.75
2022-12-22T04:59:05.419Z,349.67
2022-12-22T05:01:29.588Z,335.38
2022-12-22T05:03:53.273Z,127.57
2022-12-22T05:06:17.193Z,100.95
2022-12-22T05:08:41.010Z,131.38
2022-12-22T05:11:04.872Z,537.42
2022-12-22T05:13:30.003Z,661.17
2022-12-22T05:15:53.674Z,702.92
2022-12-22T05:18:17.237Z,911.05
2022-12-22T05:20:40.928Z,136.10
2022-12-22T05:23:04.564Z,126.90
2022-12-22T05:25:34.412Z,81.63
2022-12-22T05:27:59.673Z,109.43
2022-12-22T05:30:24.714Z,162.13
2022-12-22T05:32:49.054Z,194.65
2022-12-22T05:35:13.143Z,117.97
2022-12-22T05:37:37.250Z,123.47
2022-12-22T05:40:00.976Z,123.03
2022-12-22T05:42:36.862Z,139.70
2022-12-22T05:45:00.526Z,120.53
2022-12-22T05:47:25.532Z,131.25
2022-12-22T05:49:49.188Z,202.73
2022-12-22T05:52:12.757Z,109.25
2022-12-22T05:54:36.427Z,122.07
2022-12-22T05:57:00.010Z,149.52
2022-12-22T05:59:23.731Z,108.72
2022-12-22T06:01:47.387Z,103.82
2022-12-22T06:04:12.619Z,128.68
2022-12-22T06:06:36.393Z,121.40
2022-12-22T06:09:00.115Z,126.38
2022-12-22T06:11:23.724Z,120.95
2022-12-22T06:13:47.635Z,121.20
2022-12-22T06:16:11.308Z,131.70
2022-12-22T06:18:35.008Z,141.48
2022-12-22T06:21:00.013Z,121.95
2022-12-22T06:23:24.171Z,139.77
2022-12-22T06:25:56.959Z,127.28
2022-12-22T06:28:20.611Z,117.53
2022-12-22T06:30:44.296Z,143.15
2022-12-22T06:33:07.933Z,122.00
2022-12-22T06:35:31.765Z,117.95
2022-12-22T06:37:56.949Z,140.60
2022-12-22T06:40:20.758Z,152.20
2022-12-22T06:43:08.022Z,111.15
2022-12-22T06:45:32.244Z,136.43
2022-12-22T06:47:56.193Z,126.18
2022-12-22T06:50:19.981Z,129.40
2022-12-22T06:52:43.554Z,157.45
2022-12-22T06:55:10.049Z,113.97
2022-12-22T06:57:33.728Z,125.10
2022-12-22T06:59:58.047Z,118.45
2022-12-22T07:02:22.087Z,168.57
2022-12-22T07:04:46.498Z,135.63
2022-12-22T07:07:10.119Z,126.40
2022-12-22T07:09:33.833Z,142.07
2022-12-22T07:11:58.856Z,114.10
2022-12-22T07:14:22.738Z,107.65
2022-12-22T07:16:47.111Z,132.82
2022-12-22T07:19:11.033Z,139.80
2022-12-22T07:21:34.664Z,89.00
2022-12-22T07:23:58.480Z,154.05
2022-12-22T07:26:22.117Z,97.68
2022-12-22T07:28:47.210Z,144.48
2022-12-22T07:31:12.101Z,95.30
2022-12-22T07:33:35.957Z,108.47
2022-12-22T07:36:05.953Z,150.90
2022-12-22T07:38:29.606Z,110.68
2022-12-22T07:41:04.591Z,123.85
2022-12-22T07:43:28.207Z,116.07
2022-12-22T07:45:53.374Z,135.27
2022-12-22T07:48:34.136Z,143.80
2022-12-22T07:51:03.423Z,110.72
2022-12-22T07:53:27.042Z,100.90
2022-12-22T07:55:50.686Z,101.32
2022-12-22T07:58:14.283Z,128.85
2022-12-22T08:00:37.951Z,129.20
2022-12-22T08:03:03.155Z,70.28
2022-12-22T08:05:27.436Z,94.00
2022-12-22T08:07:52.891Z,115.38
2022-12-22T08:10:17.395Z,111.45
2022-12-22T08:12:41.300Z,120.07
2022-12-22T08:15:05.738Z,154.88
2022-12-22T08:17:29.680Z,74.13
2022-12-22T08:19:54.879Z,85.57
2022-12-22T08:22:18.537Z,90.45
2022-12-22T08:24:42.204Z,126.97
2022-12-22T08:27:12.121Z,111.43
2022-12-22T08:29:40.703Z,105.28
2022-12-22T08:32:05.131Z,134.68
2022-12-22T08:34:29.001Z,93.35
2022-12-22T08:36:58.431Z,98.22
2022-12-22T08:39:25.217Z,119.93
2022-12-22T08:41:52.020Z,146.02
2022-12-22T08:44:15.739Z,109.93
2022-12-22T08:46:39.370Z,95.03
2022-12-22T08:49:03.017Z,87.43
2022-12-22T08:51:26.745Z,113.70
2022-12-22T08:54:07.354Z,118.93
2022-12-22T08:56:32.251Z,120.75
2022-12-22T08:58:55.814Z,92.90
2022-12-22T09:01:21.500Z,87.10
2022-12-22T09:03:49.479Z,98.32
2022-12-22T09:06:13.130Z,118.65
2022-12-22T09:08:36.713Z,106.80
2022-12-22T09:11:06.330Z,99.10
2022-12-22T09:13:29.911Z,86.07
2022-12-22T09:15:53.636Z,103.47
2022-12-22T09:18:17.223Z,104.85
2022-12-22T09:20:40.918Z,93.20
2022-12-22T09:23:04.599Z,109.35
2022-12-22T09:25:28.434Z,116.50
2022-12-22T09:27:53.459Z,110.57
2022-12-22T09:30:17.488Z,103.18
2022-12-22T09:32:41.075Z,111.22
2022-12-22T09:35:05.271Z,94.90
2022-12-22T09:37:28.933Z,107.18
2022-12-22T09:39:52.589Z,111.65
2022-12-22T09:42:20.522Z,93.30
2022-12-22T09:44:50.351Z,108.75
2022-12-22T09:47:22.865Z,97.97
2022-12-22T09:49:46.854Z,99.28
2022-12-22T09:52:26.390Z,95.07
2022-12-22T09:54:50.970Z,101.82
2022-12-22T09:57:14.804Z,152.43
2022-12-22T09:59:38.471Z,77.15
2022-12-22T10:02:16.951Z,97.57
2022-12-22T10:05:02.218Z,100.05
2022-12-22T10:07:32.436Z,133.57
2022-12-22T10:09:56.828Z,102.30
2022-12-22T10:12:23.994Z,82.13
2022-12-22T10:14:50.418Z,97.60
2022-12-22T10:17:26.044Z,89.97
2022-12-22T10:19:51.407Z,80.15
2022-12-22T10:22:31.205Z,81.78
2022-12-22T10:24:55.211Z,98.50
2022-12-22T10:27:25.822Z,85.95
2022-12-22T10:29:53.348Z,66.25
2022-12-22T10:32:21.091Z,58.50
2022-12-22T10:35:03.219Z,63.55
2022-12-22T10:37:34.479Z,57.03
2022-12-22T10:39:58.250Z,83.72
2022-12-22T10:42:22.036Z,67.63
2022-12-22T10:44:49.548Z,90.15
2022-12-22T10:47:18.177Z,76.63
2022-12-22T10:49:48.068Z,84.93
2022-12-22T10:52:15.306Z,70.03
2022-12-22T10:54:41.156Z,79.25
2022-12-22T10:57:12.437Z,82.38
2022-12-22T10:59:49.277Z,98.22
2022-12-22T11:02:35.362Z,100.85
2022-12-22T11:05:08.723Z,98.03
2022-12-22T11:07:35.643Z,91.57
2022-12-22T11:09:59.434Z,135.25
2022-12-22T11:12:30.787Z,133.82
2022-12-22T11:15:02.135Z,153.98
2022-12-22T11:17:34.840Z,178.43
2022-12-22T11:20:34.485Z,79.45
2022-12-22T11:23:04.788Z,76.20
2022-12-22T11:25:41.406Z,88.88
2022-12-22T11:28:36.812Z,83.55
2022-12-22T11:31:18.990Z,96.47
2022-12-22T11:34:00.423Z,70.75
2022-12-22T11:36:39.323Z,71.47
2022-12-22T11:39:10.158Z,57.17
2022-12-22T11:41:51.406Z,79.57
2022-12-22T11:44:38.720Z,54.95
2022-12-22T11:47:11.874Z,70.13
2022-12-22T11:50:59.470Z,70.72
2022-12-22T11:53:16.147Z,63.85
2022-12-22T11:55:44.497Z,72.53
2022-12-22T11:58:33.648Z,66.30
2022-12-22T12:01:17.894Z,86.10
2022-12-22T12:04:39.389Z,81.63
2022-12-22T12:07:23.522Z,66.30
2022-12-22T12:10:05.189Z,67.50
2022-12-22T12:12:39.848Z,72.22
2022-12-22T12:15:26.820Z,90.22
2022-12-22T12:18:40.634Z,71.47
2022-12-22T12:21:27.254Z,83.05
2022-12-22T12:24:25.779Z,75.03
2022-12-22T12:27:01.158Z,74.13
2022-12-22T12:29:28.271Z,75.10
2022-12-22T12:31:59.682Z,93.72
2022-12-22T12:34:24.305Z,69.10
2022-12-22T12:36:53.360Z,90.13
2022-12-22T12:39:25.508Z,68.43
2022-12-22T12:42:02.179Z,68.40
2022-12-22T12:44:32.442Z,102.57
2022-12-22T12:47:08.260Z,82.03
2022-12-22T12:50:27.991Z,78.80
2022-12-22T12:53:16.750Z,93.55
2022-12-22T12:56:13.424Z,81.65
2022-12-22T12:58:58.309Z,70.10
2022-12-22T13:02:00.807Z,93.78
2022-12-22T13:05:15.870Z,106.60
2022-12-22T13:08:16.862Z,193.27
2022-12-22T13:10:45.781Z,96.53
2022-12-22T13:13:52.184Z,135.10
2022-12-22T13:16:39.822Z,146.45
2022-12-22T13:19:21.259Z,98.90
2022-12-22T13:21:55.129Z,77.22
2022-12-22T13:24:26.318Z,173.48
2022-12-22T13:26:55.323Z,159.48
2022-12-22T13:29:29.148Z,109.78
2022-12-22T13:31:59.377Z,111.00
2022-12-22T13:35:04.204Z,123.25
2022-12-22T13:37:26.885Z,87.43
2022-12-22T13:40:17.225Z,79.78
2022-12-22T13:42:44.163Z,137.02
2022-12-22T13:45:16.752Z,102.35
2022-12-22T13:47:44.513Z,91.43
2022-12-22T13:50:17.548Z,102.55
2022-12-22T13:52:42.295Z,105.78
2022-12-22T13:55:15.224Z,109.55
2022-12-22T13:57:41.256Z,106.70
2022-12-22T14:00:05.932Z,70.07
2022-12-22T14:02:35.090Z,77.75
2022-12-22T14:05:10.805Z,80.93
2022-12-22T14:07:34.525Z,109.78
2022-12-22T14:09:58.781Z,70.47
2022-12-22T14:12:24.927Z,99.97
2022-12-22T14:14:51.462Z,80.30
2022-12-22T14:17:23.963Z,80.05
2022-12-22T14:19:52.180Z,102.63
2022-12-22T14:22:21.144Z,84.82
2022-12-22T14:24:49.110Z,89.00
2022-12-22T14:27:20.572Z,94.35
2022-12-22T14:29:44.330Z,62.28
2022-12-22T14:32:08.140Z,64.32
2022-12-22T14:34:35.429Z,75.78
2022-12-22T14:37:02.494Z,77.70
2022-12-22T14:39:30.886Z,76.85
2022-12-22T14:41:57.486Z,58.75
2022-12-22T14:44:24.998Z,63.50
2022-12-22T14:47:16.221Z,51.53
2022-12-22T14:49:48.213Z,55.45
2022-12-22T14:52:25.677Z,65.53
2022-12-22T14:54:54.001Z,44.40
2022-12-22T14:57:24.992Z,36.60
2022-12-22T15:00:06.095Z,38.22
2022-12-22T15:02:39.135Z,45.90
2022-12-22T15:05:16.101Z,38.65
2022-12-22T15:08:06.552Z,35.85
2022-12-22T15:10:40.624Z,44.58
2022-12-22T15:13:09.275Z,34.55
2022-12-22T15:15:34.683Z,35.75
2022-12-22T15:17:58.760Z,45.25
2022-12-22T15:20:25.692Z,42.45
2022-12-22T15:22:49.967Z,42.55
2022-12-22T15:25:19.599Z,55.25
2022-12-22T15:27:44.795Z,35.22
2022-12-22T15:30:10.138Z,38.05
2022-12-22T15:32:37.898Z,45.03
2022-12-22T15:35:03.460Z,37.22
2022-12-22T15:37:27.129Z,35.40
2022-12-22T15:39:51.078Z,41.45
2022-12-22T15:42:14.847Z,40.80
2022-12-22T15:44:39.904Z,42.97
2022-12-22T15:47:03.650Z,35.05
2022-12-22T15:49:29.331Z,40.67
2022-12-22T15:51:57.195Z,38.47
2022-12-22T15:54:21.352Z,37.75
2022-12-22T15:56:45.419Z,39.33
2022-12-22T15:59:16.547Z,41.50
2022-12-22T16:01:41.876Z,38.10
2022-12-22T16:04:05.917Z,35.25
2022-12-22T16:06:29.947Z,37.78
2022-12-22T16:08:55.172Z,37.42
2022-12-22T16:11:19.691Z,58.80
2022-12-22T16:13:43.588Z,37.50
2022-12-22T16:16:08.596Z,56.72
2022-12-22T16:18:34.502Z,52.33
2022-12-22T16:21:07.305Z,48.38
2022-12-22T16:23:31.200Z,46.70
2022-12-22T16:26:01.737Z,48.40
2022-12-22T16:28:27.376Z,68.25
2022-12-22T16:30:52.576Z,100.95
2022-12-22T16:33:17.556Z,63.38
2022-12-22T16:35:43.351Z,108.43
2022-12-22T16:38:08.188Z,86.53
2022-12-22T16:40:35.851Z,67.53
2022-12-22T16:45:47.845Z,81.15
2022-12-22T16:48:17.631Z,79.03
2022-12-22T16:50:47.953Z,95.05
2022-12-22T16:53:14.563Z,116.32
2022-12-22T16:55:38.299Z,81.72
2022-12-22T16:58:05.558Z,80.72
2022-12-22T17:00:38.072Z,71.35
2022-12-22T17:03:06.409Z,73.85
2022-12-22T17:05:40.413Z,105.75
2022-12-22T17:08:18.855Z,81.25
2022-12-22T17:10:42.571Z,95.75
2022-12-22T17:13:06.217Z,89.28
2022-12-22T17:15:30.031Z,96.20
2022-12-22T17:17:54.640Z,99.18
2022-12-22T17:20:21.084Z,100.03
2022-12-22T17:22:49.359Z,111.22
2022-12-22T17:25:20.664Z,100.70
2022-12-22T17:27:44.586Z,102.95
2022-12-22T17:30:18.406Z,124.60
2022-12-22T17:32:42.413Z,77.88
2022-12-22T17:35:06.823Z,86.22
2022-12-22T17:37:30.951Z,82.28
2022-12-22T17:39:58.832Z,96.68
2022-12-22T17:42:25.584Z,98.85
2022-12-22T17:44:50.021Z,95.20
2022-12-22T17:47:16.035Z,114.43
2022-12-22T17:49:39.675Z,112.18
2022-12-22T17:52:03.464Z,118.07
2022-12-22T17:54:28.967Z,108.20
2022-12-22T17:56:53.199Z,101.32
2022-12-22T17:59:18.456Z,122.63
2022-12-22T18:01:42.451Z,123.05
2022-12-22T18:04:09.743Z,130.25
2022-12-22T18:06:36.237Z,111.32
2022-12-22T18:09:00.112Z,113.03
2022-12-22T18:11:24.489Z,134.60
2022-12-22T18:13:48.182Z,116.03
2022-12-22T18:16:18.631Z,118.70
2022-12-22T18:18:42.577Z,112.30
2022-12-22T18:21:08.233Z,121.55
2022-12-22T18:23:34.241Z,109.57
2022-12-22T18:25:58.214Z,112.93
2022-12-22T18:28:22.029Z,109.20
2022-12-22T18:30:46.183Z,73.90
2022-12-22T18:33:12.119Z,110.50
2022-12-22T18:35:36.381Z,98.35
2022-12-22T18:38:00.595Z,98.10
2022-12-22T18:40:28.800Z,121.80
2022-12-22T18:42:53.848Z,138.82
2022-12-22T18:45:18.030Z,106.13
2022-12-22T18:47:41.739Z,122.85
2022-12-22T18:50:08.509Z,134.52
2022-12-22T18:52:32.508Z,104.45
2022-12-22T18:54:56.276Z,99.28
2022-12-22T18:57:21.622Z,103.75
2022-12-22T18:59:46.098Z,120.30
2022-12-22T19:02:23.443Z,121.00
2022-12-22T19:04:47.473Z,73.28
2022-12-22T19:07:17.493Z,114.30
2022-12-22T19:09:42.762Z,131.52
2022-12-22T19:12:06.952Z,113.15
2022-12-22T19:14:31.111Z,103.38
2022-12-22T19:16:56.037Z,115.75
2022-12-22T19:19:21.889Z,104.10
2022-12-22T19:21:45.701Z,108.97
2022-12-22T19:24:11.063Z,111.63
2022-12-22T19:26:34.909Z,321.23
2022-12-22T19:29:01.305Z,107.38
2022-12-22T19:31:27.667Z,158.23
2022-12-22T19:33:51.913Z,136.32
2022-12-22T19:36:18.965Z,132.70
2022-12-22T19:38:46.002Z,137.65
2022-12-22T19:41:29.049Z,150.20
2022-12-22T19:43:52.864Z,152.38
2022-12-22T19:46:16.590Z,140.95
2022-12-22T19:48:40.611Z,241.85
2022-12-22T19:51:04.409Z,201.57
2022-12-22T19:53:28.084Z,122.18
2022-12-22T19:55:54.164Z,500.52
2022-12-22T19:58:23.343Z,126.50
2022-12-22T20:00:48.201Z,333.83
2022-12-22T20:03:13.585Z,184.35
2022-12-22T20:05:38.206Z,175.35
2022-12-22T20:08:02.934Z,179.23
2022-12-22T20:10:28.519Z,247.18
2022-12-22T20:12:55.730Z,431.75
2022-12-22T20:15:24.294Z,224.68
2022-12-22T20:17:49.012Z,173.40
2022-12-22T20:20:15.838Z,157.18
2022-12-22T20:22:39.877Z,176.07
2022-12-22T20:25:03.623Z,182.32
2022-12-22T20:27:34.454Z,162.40
2022-12-22T20:29:58.183Z,168.17
2022-12-22T20:32:28.059Z,193.20
2022-12-22T20:34:52.303Z,157.68
2022-12-22T20:37:18.136Z,119.13
2022-12-22T20:39:41.939Z,144.93
2022-12-22T20:42:05.693Z,187.37
2022-12-22T20:44:29.487Z,212.57
2022-12-22T20:46:53.167Z,186.88
2022-12-22T20:49:18.501Z,308.20
2022-12-22T20:51:42.558Z,176.23
2022-12-22T20:54:11.479Z,145.10
2022-12-22T20:56:38.702Z,127.20
2022-12-22T20:59:14.336Z,118.10
2022-12-22T21:01:38.172Z,144.45
2022-12-22T21:04:01.855Z,156.65
2022-12-22T21:06:30.858Z,161.23
2022-12-22T21:08:56.298Z,143.57
2022-12-22T21:11:20.166Z,150.00
2022-12-22T21:13:43.810Z,180.63
2022-12-22T21:16:12.872Z,218.40
2022-12-22T21:18:36.541Z,161.77
2022-12-22T21:21:00.260Z,185.82
2022-12-22T21:23:25.403Z,155.17
2022-12-22T21:25:54.419Z,214.17
2022-12-22T21:28:25.306Z,171.87
2022-12-22T21:30:49.136Z,424.05
2022-12-22T21:33:12.834Z,181.25
2022-12-22T21:35:37.993Z,236.10
2022-12-22T21:38:01.882Z,176.17
2022-12-22T21:40:29.613Z,214.52
2022-12-22T21:42:54.254Z,277.33
2022-12-22T21:45:20.939Z,230.50
2022-12-22T21:47:45.066Z,238.90
2022-12-22T21:50:15.849Z,222.32
2022-12-22T21:52:39.557Z,200.52
2022-12-22T21:55:05.287Z,183.23
2022-12-22T21:57:30.354Z,183.27
2022-12-22T21:59:54.046Z,298.35
2022-12-22T22:02:19.684Z,173.57
2022-12-22T22:04:48.360Z,155.75
2022-12-22T22:07:17.572Z,169.30
2022-12-22T22:09:41.219Z,174.70
2022-12-22T22:12:28.072Z,196.95
2022-12-22T22:14:53.436Z,162.43
2022-12-22T22:17:17.076Z,156.40
2022-12-22T22:19:40.812Z,161.47
2022-12-22T22:22:04.634Z,145.97
2022-12-22T22:24:28.462Z,206.93
2022-12-22T22:26:52.243Z,141.27
2022-12-22T22:29:16.175Z,137.27
2022-12-22T22:31:41.802Z,158.13
2022-12-22T22:34:05.521Z,199.98
2022-12-22T22:36:29.192Z,163.80
2022-12-22T22:38:53.142Z,143.40
2022-12-22T22:41:16.768Z,269.03
2022-12-22T22:43:40.502Z,214.97
2022-12-22T22:46:04.185Z,314.08
2022-12-22T22:48:29.281Z,280.85
2022-12-22T22:50:53.595Z,443.30
2022-12-22T22:53:17.363Z,725.70
2022-12-22T22:55:41.053Z,586.57
2022-12-22T22:58:04.802Z,413.93
2022-12-22T23:00:28.501Z,227.60
2022-12-22T23:02:52.240Z,568.47
2022-12-22T23:05:22.662Z,825.85
2022-12-22T23:07:47.357Z,525.90
2022-12-22T23:10:11.791Z,445.37
2022-12-22T23:12:35.569Z,442.52
2022-12-22T23:15:00.876Z,772.45
2022-12-22T23:17:25.083Z,300.03
2022-12-22T23:19:48.705Z,171.30
2022-12-22T23:22:13.865Z,161.80
2022-12-22T23:24:37.774Z,218.57
2022-12-22T23:27:01.471Z,199.95
2022-12-22T23:29:25.337Z,206.43
2022-12-22T23:31:49.059Z,434.90
2022-12-22T23:34:13.630Z,338.93
2022-12-22T23:36:37.281Z,217.00
2022-12-22T23:39:02.339Z,168.43
2022-12-22T23:41:26.093Z,323.07
2022-12-22T23:43:49.813Z,554.57
2022-12-22T23:46:16.949Z,354.00
2022-12-22T23:48:41.620Z,199.17
2022-12-22T23:51:06.028Z,524.27
2022-12-22T23:53:29.722Z,234.75
2022-12-22T23:55:54.734Z,229.90
2022-12-22T23:58:19.100Z,289.27
